createdAt,value
2022-07-28T00:05:00.459Z,68.10
2022-07-28T00:10:03.876Z,68.30
2022-07-28T00:15:08.506Z,68.50
2022-07-28T00:20:13.668Z,68.80
2022-07-28T00:25:16.978Z,69.20
2022-07-28T00:30:20.587Z,69.50
2022-07-28T00:35:31.101Z,69.80
2022-07-28T00:40:52.422Z,70.10
2022-07-28T00:45:55.823Z,70.40
2022-07-28T00:51:00.822Z,70.60
2022-07-28T00:56:06.098Z,70.70
2022-07-28T01:01:12.468Z,70.90
2022-07-28T01:06:27.831Z,70.90
2022-07-28T01:11:42.907Z,71.10
2022-07-28T01:16:58.268Z,71.30
2022-07-28T01:22:04.562Z,71.60
2022-07-28T01:27:11.041Z,71.80
2022-07-28T01:32:21.035Z,72.00
2022-07-28T01:37:28.570Z,72.10
2022-07-28T01:42:35.517Z,72.40
2022-07-28T01:47:42.401Z,72.50
2022-07-28T01:52:49.040Z,72.80
2022-07-28T01:57:56.112Z,72.70
2022-07-28T02:03:03.836Z,73.20
2022-07-28T02:08:09.321Z,73.30
2022-07-28T02:13:13.444Z,73.40
2022-07-28T02:18:18.518Z,73.60
2022-07-28T02:23:24.935Z,73.80
2022-07-28T02:28:29.996Z,73.90
2022-07-28T02:33:59.351Z,74.20
2022-07-28T02:39:07.327Z,74.30
2022-07-28T02:44:17.228Z,74.60
2022-07-28T02:49:27.062Z,74.70
2022-07-28T02:54:33.299Z,75.10
2022-07-28T02:59:38.105Z,75.30
2022-07-28T03:04:59.333Z,75.60
2022-07-28T03:10:03.942Z,75.70
2022-07-28T03:15:08.591Z,75.80
2022-07-28T03:20:14.630Z,75.90
2022-07-28T03:25:22.007Z,76.10
2022-07-28T03:30:29.980Z,76.40
2022-07-28T03:35:37.066Z,76.50
2022-07-28T03:40:41.630Z,76.60
2022-07-28T03:45:50.557Z,76.70
2022-07-28T03:50:55.359Z,76.80
2022-07-28T03:55:59.181Z,77.00
2022-07-28T04:01:03.564Z,77.20
2022-07-28T04:06:08.797Z,77.40
2022-07-28T04:11:12.635Z,77.50
2022-07-28T04:16:16.197Z,77.50
2022-07-28T04:21:23.257Z,77.40
2022-07-28T04:26:26.801Z,77.10
2022-07-28T04:31:30.279Z,76.90
2022-07-28T04:36:42.054Z,76.70
2022-07-28T04:41:45.636Z,76.50
2022-07-28T04:46:49.264Z,76.10
2022-07-28T04:51:54.341Z,76.50
2022-07-28T04:57:00.825Z,76.40
2022-07-28T05:02:10.324Z,76.30
2022-07-28T05:07:15.123Z,76.20
2022-07-28T05:12:18.724Z,76.00
2022-07-28T05:17:22.260Z,75.90
2022-07-28T05:22:27.208Z,75.60
2022-07-28T05:27:30.676Z,75.40
2022-07-28T05:32:34.237Z,74.70
2022-07-28T05:37:39.683Z,74.20
2022-07-28T05:42:44.030Z,73.80
2022-07-28T05:47:50.579Z,73.50
2022-07-28T05:52:55.387Z,73.20
2022-07-28T05:58:00.413Z,72.90
2022-07-28T06:03:03.983Z,72.90
2022-07-28T06:08:09.044Z,73.30
2022-07-28T06:13:16.027Z,72.80
2022-07-28T06:18:19.721Z,72.20
2022-07-28T06:23:25.119Z,71.70
2022-07-28T06:28:28.796Z,71.70
2022-07-28T06:33:32.145Z,71.90
2022-07-28T06:38:37.336Z,71.40
2022-07-28T06:43:40.884Z,71.00
2022-07-28T06:48:46.275Z,70.60
2022-07-28T06:53:51.200Z,70.30
2022-07-28T06:58:54.597Z,70.00
2022-07-28T07:03:58.207Z,69.80
2022-07-28T07:09:03.717Z,68.40
2022-07-28T07:14:07.602Z,67.10
2022-07-28T07:19:15.646Z,65.70
2022-07-28T07:24:22.420Z,65.50
2022-07-28T07:29:26.594Z,65.70
2022-07-28T07:34:34.557Z,65.00
2022-07-28T07:39:39.373Z,64.50
2022-07-28T07:44:43.073Z,64.00
2022-07-28T07:49:54.120Z,63.20
2022-07-28T07:54:59.284Z,62.40
2022-07-28T08:00:02.670Z,64.20
2022-07-28T08:05:09.068Z,64.60
2022-07-28T08:10:15.405Z,62.80
2022-07-28T08:15:18.748Z,61.90
2022-07-28T08:20:22.133Z,61.30
2022-07-28T08:25:27.854Z,60.50
2022-07-28T08:30:32.910Z,59.70
2022-07-28T08:35:36.668Z,58.70
2022-07-28T08:40:43.801Z,58.30
2022-07-28T08:45:52.549Z,58.40
2022-07-28T08:51:01.846Z,58.10
2022-07-28T08:56:08.878Z,57.40
2022-07-28T09:01:13.623Z,57.40
2022-07-28T09:06:17.316Z,56.00
2022-07-28T09:11:22.351Z,55.20
2022-07-28T09:16:25.952Z,54.90
2022-07-28T09:21:29.588Z,54.50
2022-07-28T09:26:34.637Z,54.60
2022-07-28T09:31:57.044Z,53.80
2022-07-28T09:37:01.118Z,53.40
2022-07-28T09:42:06.494Z,52.40
2022-07-28T09:47:24.415Z,52.20
2022-07-28T09:52:32.163Z,52.00
2022-07-28T09:57:38.820Z,51.40
2022-07-28T10:02:51.612Z,51.00
2022-07-28T10:07:55.973Z,51.40
2022-07-28T10:13:06.837Z,50.10
2022-07-28T10:18:10.558Z,50.40
2022-07-28T10:23:15.823Z,49.20
2022-07-28T10:28:23.313Z,48.90
2022-07-28T10:33:30.306Z,49.40
2022-07-28T10:38:36.672Z,49.40
2022-07-28T10:43:45.654Z,49.10
2022-07-28T10:48:50.100Z,48.40
2022-07-28T10:53:56.747Z,47.90
2022-07-28T10:59:12.324Z,46.80
2022-07-28T11:04:55.753Z,46.40
2022-07-28T11:10:16.974Z,46.60
2022-07-28T11:15:32.089Z,46.60
2022-07-28T11:21:10.796Z,46.80
2022-07-28T11:26:36.448Z,46.70
2022-07-28T11:32:00.296Z,46.70
2022-07-28T11:37:05.473Z,46.20
2022-07-28T11:42:26.969Z,46.10
2022-07-28T11:47:33.521Z,45.90
2022-07-28T11:52:37.946Z,45.00
2022-07-28T11:57:44.055Z,44.50
2022-07-28T12:02:48.752Z,43.70
2022-07-28T12:07:53.192Z,43.40
2022-07-28T12:12:58.528Z,42.90
2022-07-28T12:18:03.532Z,42.60
2022-07-28T12:23:10.314Z,42.00
2022-07-28T12:28:18.399Z,41.30
2022-07-28T12:33:29.482Z,39.80
2022-07-28T12:38:33.964Z,39.20
2022-07-28T12:43:37.824Z,39.00
2022-07-28T12:48:42.995Z,38.80
2022-07-28T12:53:52.784Z,38.40
2022-07-28T12:59:06.784Z,37.80
2022-07-28T13:04:11.413Z,37.40
2022-07-28T13:09:32.846Z,37.20
2022-07-28T13:14:42.101Z,37.10
2022-07-28T13:19:47.344Z,37.10
2022-07-28T13:24:50.954Z,36.40
2022-07-28T13:29:54.684Z,35.60
2022-07-28T13:34:59.184Z,35.30
2022-07-28T13:40:03.109Z,35.00
2022-07-28T13:45:06.888Z,35.10
2022-07-28T13:50:11.653Z,35.50
2022-07-28T13:55:17.625Z,34.90
2022-07-28T14:00:23.511Z,35.00
2022-07-28T14:05:32.265Z,35.60
2022-07-28T14:10:37.280Z,37.50
2022-07-28T14:15:41.228Z,38.10
2022-07-28T14:20:45.934Z,38.40
2022-07-28T14:25:50.864Z,38.30
2022-07-28T14:30:54.599Z,38.00
2022-07-28T14:35:59.422Z,37.70
2022-07-28T14:41:02.899Z,37.70
2022-07-28T14:46:13.430Z,37.70
2022-07-28T14:51:21.094Z,37.90
2022-07-28T14:56:25.171Z,37.80
2022-07-28T15:01:28.756Z,37.60
2022-07-28T15:06:40.825Z,37.40
2022-07-28T15:11:46.635Z,37.30
2022-07-28T15:16:50.051Z,37.20
2022-07-28T15:21:54.717Z,37.10
2022-07-28T15:26:58.249Z,36.90
2022-07-28T15:32:02.464Z,36.90
2022-07-28T15:37:08.988Z,36.90
2022-07-28T15:42:12.870Z,37.00
2022-07-28T15:47:16.191Z,37.00
2022-07-28T15:52:21.173Z,37.00
2022-07-28T15:57:24.841Z,37.10
2022-07-28T16:02:41.508Z,37.10
2022-07-28T16:07:46.073Z,37.20
2022-07-28T16:12:49.398Z,37.20
2022-07-28T16:17:52.932Z,37.20
2022-07-28T16:22:58.416Z,37.30
2022-07-28T16:28:03.801Z,37.60
2022-07-28T16:33:08.357Z,37.50
2022-07-28T16:38:13.157Z,37.40
2022-07-28T16:43:17.965Z,37.40
2022-07-28T16:48:21.672Z,37.50
2022-07-28T16:53:26.220Z,37.50
2022-07-28T16:58:29.397Z,37.50
2022-07-28T17:03:32.689Z,37.60
2022-07-28T17:08:37.275Z,37.60
2022-07-28T17:13:44.911Z,37.60
2022-07-28T17:18:48.712Z,37.60
2022-07-28T17:23:53.235Z,37.50
2022-07-28T17:28:56.923Z,37.60
2022-07-28T17:34:00.693Z,37.70
2022-07-28T17:39:06.935Z,37.80
2022-07-28T17:44:10.091Z,37.90
2022-07-28T17:49:13.259Z,38.00
2022-07-28T17:54:19.878Z,38.10
2022-07-28T17:59:26.679Z,38.70
2022-07-28T18:04:43.700Z,39.30
2022-07-28T18:09:48.303Z,39.70
2022-07-28T18:14:51.604Z,40.20
2022-07-28T18:19:54.941Z,40.60
2022-07-28T18:25:00.839Z,41.00
2022-07-28T18:30:05.413Z,41.40
2022-07-28T18:35:09.720Z,41.70
2022-07-28T18:40:15.753Z,41.90
2022-07-28T18:45:20.160Z,42.20
2022-07-28T18:50:28.038Z,42.50
2022-07-28T18:55:36.575Z,42.80
2022-07-28T19:00:40.467Z,43.10
2022-07-28T19:05:46.117Z,43.40
2022-07-28T19:10:51.251Z,43.70
2022-07-28T19:15:54.596Z,43.90
2022-07-28T19:20:57.847Z,44.10
2022-07-28T19:26:02.837Z,44.40
2022-07-28T19:31:10.155Z,44.70
2022-07-28T19:36:15.083Z,44.90
2022-07-28T19:41:19.691Z,45.10
2022-07-28T19:46:24.449Z,45.40
2022-07-28T19:51:29.695Z,45.90
2022-07-28T19:56:34.502Z,45.90
2022-07-28T20:01:45.927Z,46.20
2022-07-28T20:06:55.370Z,46.50
2022-07-28T20:12:00.377Z,46.70
2022-07-28T20:17:03.719Z,47.10
2022-07-28T20:22:08.348Z,47.40
2022-07-28T20:27:13.558Z,47.70
2022-07-28T20:32:16.943Z,48.10
2022-07-28T20:37:35.741Z,48.30
2022-07-28T20:42:41.556Z,48.60
2022-07-28T20:47:45.178Z,49.00
2022-07-28T20:52:49.217Z,49.30
2022-07-28T20:57:55.967Z,49.50
2022-07-28T21:03:00.633Z,49.80
2022-07-28T21:08:05.837Z,50.10
2022-07-28T21:13:11.697Z,50.30
2022-07-28T21:18:17.229Z,50.60
2022-07-28T21:23:20.655Z,51.00
2022-07-28T21:28:42.975Z,51.80
2022-07-28T21:33:46.666Z,51.50
2022-07-28T21:38:50.151Z,51.70
2022-07-28T21:44:00.831Z,51.90
2022-07-28T21:49:06.927Z,52.60
2022-07-28T21:54:10.271Z,52.30
2022-07-28T21:59:15.355Z,52.50
2022-07-28T22:04:19.597Z,52.70
2022-07-28T22:09:23.706Z,52.90
2022-07-28T22:14:32.257Z,53.10
2022-07-28T22:19:37.808Z,53.20
2022-07-28T22:24:41.428Z,53.50
2022-07-28T22:29:51.750Z,53.60
2022-07-28T22:34:55.770Z,53.90
2022-07-28T22:39:59.250Z,54.00
2022-07-28T22:45:04.363Z,54.30
2022-07-28T22:50:09.260Z,54.40
2022-07-28T22:55:12.771Z,54.60
2022-07-28T23:00:21.872Z,54.60
2022-07-28T23:05:25.970Z,54.80
2022-07-28T23:10:30.974Z,55.00
2022-07-28T23:15:41.286Z,55.10
2022-07-28T23:20:46.245Z,55.20
2022-07-28T23:25:49.410Z,55.20
2022-07-28T23:30:53.964Z,55.50
2022-07-28T23:35:57.286Z,55.50
2022-07-28T23:41:00.672Z,55.60
2022-07-28T23:46:06.840Z,55.60
2022-07-28T23:51:10.259Z,55.80
2022-07-28T23:56:15.345Z,55.80
